createdAt,value
2018-01-22T00:01:03.152Z,0.00
2018-01-22T00:02:03.163Z,0.00
2018-01-22T00:03:56.068Z,0.00
2018-01-22T00:04:56.064Z,0.00
2018-01-22T00:06:48.974Z,0.00
2018-01-22T00:07:48.969Z,0.00
2018-01-22T00:09:41.859Z,0.00
2018-01-22T00:10:41.874Z,0.00
2018-01-22T00:12:34.784Z,0.00
2018-01-22T00:13:34.780Z,0.00
2018-01-22T00:15:27.669Z,0.00
2018-01-22T00:16:27.682Z,0.00
2018-01-22T00:18:20.599Z,0.00
2018-01-22T00:19:20.591Z,0.00
2018-01-22T00:21:13.484Z,0.00
2018-01-22T00:22:13.499Z,0.00
2018-01-22T00:24:06.408Z,0.00
2018-01-22T00:25:13.522Z,0.00
2018-01-22T00:27:06.429Z,0.00
2018-01-22T00:28:06.428Z,0.00
2018-01-22T00:29:52.200Z,0.00
2018-01-22T00:30:52.215Z,0.00
2018-01-22T00:32:45.125Z,0.00
2018-01-22T00:33:45.117Z,0.00
2018-01-22T00:35:38.009Z,0.00
2018-01-22T00:36:38.022Z,0.00
2018-01-22T00:38:30.928Z,0.00
2018-01-22T00:39:30.924Z,0.00
2018-01-22T00:41:23.813Z,0.00
2018-01-22T00:42:23.833Z,0.00
2018-01-22T00:44:16.738Z,0.00
2018-01-22T00:45:16.731Z,0.00
2018-01-22T00:47:09.652Z,0.00
2018-01-22T00:48:09.638Z,0.00
2018-01-22T00:50:02.529Z,0.00
2018-01-22T00:51:02.540Z,0.00
2018-01-22T00:52:55.449Z,0.00
2018-01-22T00:53:55.444Z,0.00
2018-01-22T00:55:48.334Z,0.00
2018-01-22T00:56:48.346Z,0.00
2018-01-22T00:58:41.257Z,0.00
2018-01-22T00:59:41.254Z,0.00
2018-01-22T01:01:34.147Z,0.00
2018-01-22T01:02:34.160Z,0.00
2018-01-22T01:04:27.070Z,0.00
2018-01-22T01:05:27.064Z,0.00
2018-01-22T01:07:19.975Z,0.00
2018-01-22T01:08:19.969Z,0.00
2018-01-22T01:10:12.858Z,0.00
2018-01-22T01:11:12.874Z,0.00
2018-01-22T01:13:05.787Z,0.00
2018-01-22T01:14:05.781Z,0.00
2018-01-22T01:15:58.725Z,0.00
2018-01-22T01:16:58.692Z,0.00
2018-01-22T01:18:51.598Z,0.00
2018-01-22T01:19:51.595Z,0.00
2018-01-22T01:21:44.484Z,0.00
2018-01-22T01:22:44.508Z,0.00
2018-01-22T01:24:37.413Z,0.00
2018-01-22T01:25:37.405Z,0.00
2018-01-22T01:27:30.322Z,0.00
2018-01-22T01:28:30.309Z,0.00
2018-01-22T01:30:23.200Z,0.00
2018-01-22T01:31:23.215Z,0.00
2018-01-22T01:33:16.124Z,0.00
2018-01-22T01:34:16.118Z,0.00
2018-01-22T01:36:09.012Z,0.00
2018-01-22T01:37:09.024Z,0.00
2018-01-22T01:39:01.933Z,0.00
2018-01-22T01:40:01.930Z,0.00
2018-01-22T01:41:54.823Z,0.00
2018-01-22T01:42:54.837Z,0.00
2018-01-22T01:44:47.748Z,0.00
2018-01-22T01:45:47.743Z,0.00
2018-01-22T01:47:40.652Z,0.00
2018-01-22T01:48:40.647Z,0.00
2018-01-22T01:50:33.537Z,0.00
2018-01-22T01:51:33.550Z,0.00
2018-01-22T01:53:26.464Z,0.00
2018-01-22T01:54:26.460Z,0.00
2018-01-22T01:56:19.405Z,0.00
2018-01-22T01:57:19.369Z,0.00
2018-01-22T01:59:12.276Z,0.00
2018-01-22T02:00:12.272Z,0.00
2018-01-22T02:02:05.165Z,0.00
2018-01-22T02:03:05.178Z,0.00
2018-01-22T02:04:58.088Z,0.00
2018-01-22T02:05:58.085Z,0.00
2018-01-22T02:07:51.014Z,0.00
2018-01-22T02:08:50.999Z,0.00
2018-01-22T02:10:43.892Z,0.00
2018-01-22T02:11:43.906Z,0.00
2018-01-22T02:13:36.813Z,0.00
2018-01-22T02:14:36.807Z,0.00
2018-01-22T02:16:29.699Z,0.00
2018-01-22T02:17:29.723Z,0.00
2018-01-22T02:19:22.629Z,0.00
2018-01-22T02:20:22.624Z,0.00
2018-01-22T02:22:15.516Z,0.00
2018-01-22T02:23:15.529Z,0.00
2018-01-22T02:25:08.444Z,0.00
2018-01-22T02:26:08.435Z,0.00
2018-01-22T02:28:01.354Z,0.00
2018-01-22T02:29:01.342Z,0.00
2018-01-22T02:30:54.231Z,0.00
2018-01-22T02:31:54.246Z,0.00
2018-01-22T02:33:47.155Z,0.00
2018-01-22T02:34:47.150Z,0.00
2018-01-22T02:36:40.039Z,0.00
2018-01-22T02:37:40.055Z,0.00
2018-01-22T02:39:32.972Z,0.00
2018-01-22T02:40:32.969Z,0.00
2018-01-22T02:42:25.861Z,0.00
2018-01-22T02:43:25.875Z,0.00
2018-01-22T02:45:18.786Z,0.00
2018-01-22T02:46:18.782Z,0.00
2018-01-22T02:48:11.674Z,0.00
2018-01-22T02:49:11.689Z,0.00
2018-01-22T02:51:04.598Z,0.00
2018-01-22T02:52:04.594Z,0.00
2018-01-22T02:53:57.505Z,0.00
2018-01-22T02:54:57.503Z,0.00
2018-01-22T02:56:50.389Z,0.00
2018-01-22T02:57:50.403Z,0.00
2018-01-22T02:59:43.313Z,0.00
2018-01-22T03:00:43.309Z,0.00
2018-01-22T03:02:36.202Z,0.00
2018-01-22T03:03:36.216Z,0.00
2018-01-22T03:05:29.128Z,0.00
2018-01-22T03:06:29.119Z,0.00
2018-01-22T03:08:22.013Z,0.00
2018-01-22T03:09:22.026Z,0.00
2018-01-22T03:11:14.940Z,0.00
2018-01-22T03:12:14.933Z,0.00
2018-01-22T03:14:07.845Z,0.00
2018-01-22T03:15:07.840Z,0.00
2018-01-22T03:17:00.728Z,0.00
2018-01-22T03:18:00.743Z,0.00
2018-01-22T03:19:53.650Z,0.00
2018-01-22T03:20:53.648Z,0.00
2018-01-22T03:22:46.542Z,0.00
2018-01-22T03:23:46.559Z,0.00
2018-01-22T03:25:39.470Z,0.00
2018-01-22T03:26:39.461Z,0.00
2018-01-22T03:28:33.348Z,0.00
2018-01-22T03:29:33.363Z,0.00
2018-01-22T03:31:26.271Z,0.00
2018-01-22T03:32:26.268Z,0.00
2018-01-22T03:34:19.178Z,0.00
2018-01-22T03:35:19.176Z,0.00
2018-01-22T03:37:12.070Z,0.00
2018-01-22T03:38:12.082Z,0.00
2018-01-22T03:40:04.995Z,0.00
2018-01-22T03:41:04.987Z,0.00
2018-01-22T03:42:57.879Z,0.00
2018-01-22T03:43:57.893Z,0.00
2018-01-22T03:45:50.806Z,0.00
2018-01-22T03:46:50.795Z,0.00
2018-01-22T03:48:43.686Z,0.00
2018-01-22T03:49:43.699Z,0.00
2018-01-22T03:51:36.610Z,0.00
2018-01-22T03:52:36.606Z,0.00
2018-01-22T03:54:29.514Z,0.00
2018-01-22T03:55:29.510Z,0.00
2018-01-22T03:57:22.400Z,0.00
2018-01-22T03:58:22.416Z,0.00
2018-01-22T04:00:15.328Z,0.00
2018-01-22T04:01:15.321Z,0.00
2018-01-22T04:03:08.218Z,0.00
2018-01-22T04:04:08.233Z,0.00
2018-01-22T04:06:01.142Z,0.00
2018-01-22T04:07:01.137Z,0.00
2018-01-22T04:08:54.030Z,0.00
2018-01-22T04:09:54.045Z,0.00
2018-01-22T04:11:46.954Z,0.00
2018-01-22T04:12:46.949Z,0.00
2018-01-22T04:14:39.857Z,0.00
2018-01-22T04:15:39.854Z,0.00
2018-01-22T04:17:32.741Z,0.00
2018-01-22T04:18:32.755Z,0.00
2018-01-22T04:20:25.668Z,0.00
2018-01-22T04:21:25.664Z,0.00
2018-01-22T04:23:18.553Z,0.00
2018-01-22T04:24:18.568Z,0.00
2018-01-22T04:26:11.481Z,0.00
2018-01-22T04:27:11.474Z,0.00
2018-01-22T04:29:04.365Z,0.00
2018-01-22T04:30:04.380Z,0.00
2018-01-22T04:31:57.301Z,0.00
2018-01-22T04:32:57.289Z,0.00
2018-01-22T04:34:50.200Z,0.00
2018-01-22T04:35:50.194Z,0.00
2018-01-22T04:37:43.087Z,0.00
2018-01-22T04:38:43.100Z,0.00
2018-01-22T04:40:36.009Z,0.00
2018-01-22T04:41:36.006Z,0.00
2018-01-22T04:43:28.894Z,0.00
2018-01-22T04:44:28.908Z,0.00
2018-01-22T04:46:21.822Z,0.00
2018-01-22T04:47:21.816Z,0.00
2018-01-22T04:49:14.708Z,0.00
2018-01-22T04:50:14.722Z,0.00
2018-01-22T04:52:07.633Z,0.00
2018-01-22T04:53:07.630Z,0.00
2018-01-22T04:55:00.539Z,0.00
2018-01-22T04:56:00.537Z,0.00
2018-01-22T04:57:53.435Z,0.00
2018-01-22T04:58:53.452Z,0.00
2018-01-22T05:00:46.361Z,0.00
2018-01-22T05:01:46.353Z,0.00
2018-01-22T05:03:39.266Z,0.00
2018-01-22T05:04:39.280Z,0.00
2018-01-22T05:06:32.191Z,0.00
2018-01-22T05:07:32.188Z,0.00
2018-01-22T05:09:25.079Z,0.00
2018-01-22T05:10:25.094Z,0.00
2018-01-22T05:12:18.006Z,0.00
2018-01-22T05:13:17.998Z,0.00
2018-01-22T05:15:10.912Z,0.00
2018-01-22T05:16:10.908Z,0.00
2018-01-22T05:18:03.807Z,0.00
2018-01-22T05:19:03.825Z,0.00
2018-01-22T05:20:56.734Z,0.00
2018-01-22T05:21:56.729Z,0.00
2018-01-22T05:23:56.740Z,0.00
2018-01-22T05:24:49.637Z,0.00
2018-01-22T05:26:42.547Z,0.00
2018-01-22T05:27:42.541Z,0.00
2018-01-22T05:29:35.437Z,0.00
2018-01-22T05:30:35.450Z,0.00
2018-01-22T05:32:28.360Z,0.00
2018-01-22T05:33:28.391Z,0.00
2018-01-22T05:35:21.287Z,0.00
2018-01-22T05:36:21.262Z,0.00
2018-01-22T05:38:14.150Z,0.00
2018-01-22T05:39:14.161Z,0.00
2018-01-22T05:41:07.071Z,0.00
2018-01-22T05:42:07.067Z,0.00
2018-01-22T05:43:59.957Z,0.00
2018-01-22T05:44:59.980Z,0.00
2018-01-22T05:46:52.880Z,0.00
2018-01-22T05:47:52.876Z,0.00
2018-01-22T05:49:45.774Z,0.00
2018-01-22T05:50:45.787Z,0.00
2018-01-22T05:52:38.699Z,0.00
2018-01-22T05:53:38.692Z,0.00
2018-01-22T05:55:31.601Z,0.00
2018-01-22T05:56:31.598Z,0.00
2018-01-22T05:58:24.496Z,0.00
2018-01-22T05:59:24.505Z,0.00
2018-01-22T06:01:17.416Z,0.00
2018-01-22T06:02:17.411Z,0.00
2018-01-22T06:04:10.499Z,0.00
2018-01-22T06:05:10.519Z,0.00
2018-01-22T06:07:03.429Z,0.00
2018-01-22T06:08:03.428Z,0.00
2018-01-22T06:09:56.563Z,0.00
2018-01-22T06:10:56.527Z,0.00
2018-01-22T06:12:49.437Z,0.00
2018-01-22T06:13:49.432Z,0.00
2018-01-22T06:15:42.341Z,0.00
2018-01-22T06:16:42.336Z,0.00
2018-01-22T06:18:35.229Z,0.00
2018-01-22T06:19:35.247Z,0.00
2018-01-22T06:21:28.156Z,0.00
2018-01-22T06:22:28.151Z,0.00
2018-01-22T06:24:21.046Z,0.00
2018-01-22T06:25:21.062Z,0.00
2018-01-22T06:27:13.972Z,0.00
2018-01-22T06:28:13.967Z,0.00
2018-01-22T06:30:06.857Z,0.00
2018-01-22T06:31:06.873Z,0.00
2018-01-22T06:32:59.783Z,0.00
2018-01-22T06:33:59.777Z,0.00
2018-01-22T06:35:52.692Z,0.00
2018-01-22T06:36:52.691Z,0.00
2018-01-22T06:38:45.574Z,0.00
2018-01-22T06:39:45.588Z,0.00
2018-01-22T06:41:38.497Z,0.00
2018-01-22T06:42:38.494Z,0.00
2018-01-22T06:44:31.386Z,0.00
2018-01-22T06:45:31.403Z,0.00
2018-01-22T06:47:24.312Z,0.00
2018-01-22T06:48:24.305Z,0.00
2018-01-22T06:50:17.205Z,0.00
2018-01-22T06:51:17.220Z,0.00
2018-01-22T06:53:10.132Z,0.00
2018-01-22T06:54:10.126Z,0.00
2018-01-22T06:56:03.038Z,0.00
2018-01-22T06:57:03.034Z,4.00
2018-01-22T06:58:55.924Z,4.00
2018-01-22T06:59:55.937Z,4.00
2018-01-22T07:01:48.850Z,4.00
2018-01-22T07:02:48.848Z,8.00
2018-01-22T07:04:41.737Z,8.00
2018-01-22T07:05:41.752Z,8.00
2018-01-22T07:07:34.662Z,12.00
2018-01-22T07:08:34.658Z,16.00
2018-01-22T07:10:27.755Z,16.00
2018-01-22T07:11:27.803Z,20.00
2018-01-22T07:13:20.675Z,24.00
2018-01-22T07:14:20.670Z,20.00
2018-01-22T07:16:13.581Z,20.00
2018-01-22T07:17:13.577Z,28.00
2018-01-22T07:19:06.469Z,40.00
2018-01-22T07:20:06.485Z,48.00
2018-01-22T07:22:00.588Z,52.00
2018-01-22T07:23:00.582Z,60.00
2018-01-22T07:24:53.477Z,52.00
2018-01-22T07:25:53.492Z,56.00
2018-01-22T07:27:46.401Z,60.00
2018-01-22T07:28:46.397Z,72.00
2018-01-22T07:30:39.289Z,100.00
2018-01-22T07:31:39.304Z,124.00
2018-01-22T07:33:32.216Z,152.00
2018-01-22T07:34:32.211Z,136.00
2018-01-22T07:36:25.125Z,136.00
2018-01-22T07:37:25.122Z,140.00
2018-01-22T07:39:18.010Z,156.00
2018-01-22T07:40:18.025Z,172.00
2018-01-22T07:42:10.935Z,240.00
2018-01-22T07:43:10.932Z,292.00
2018-01-22T07:45:03.821Z,340.00
2018-01-22T07:46:03.835Z,324.00
2018-01-22T07:47:56.748Z,308.00
2018-01-22T07:48:56.743Z,316.00
2018-01-22T07:50:49.634Z,328.00
2018-01-22T07:51:49.652Z,320.00
2018-01-22T07:53:42.564Z,324.00
2018-01-22T07:54:42.558Z,356.00
2018-01-22T07:56:35.470Z,488.00
2018-01-22T07:57:35.469Z,580.00
2018-01-22T07:59:28.359Z,556.00
2018-01-22T08:00:28.372Z,516.00
2018-01-22T08:02:21.284Z,492.00
2018-01-22T08:03:21.283Z,488.00
2018-01-22T08:05:14.175Z,520.00
2018-01-22T08:06:14.187Z,520.00
2018-01-22T08:08:08.115Z,560.00
2018-01-22T08:09:08.089Z,576.00
2018-01-22T08:11:00.990Z,560.00
2018-01-22T08:12:00.998Z,544.00
2018-01-22T08:13:53.908Z,552.00
2018-01-22T08:14:53.904Z,588.00
2018-01-22T08:16:46.820Z,632.00
2018-01-22T08:17:46.810Z,660.00
2018-01-22T08:19:39.708Z,620.00
2018-01-22T08:20:39.722Z,644.00
2018-01-22T08:22:32.634Z,732.00
2018-01-22T08:23:32.630Z,696.00
2018-01-22T08:25:25.532Z,704.00
2018-01-22T08:26:25.546Z,696.00
2018-01-22T08:28:18.458Z,712.00
2018-01-22T08:29:18.455Z,668.00
2018-01-22T08:31:11.350Z,620.00
2018-01-22T08:32:11.366Z,656.00
2018-01-22T08:34:04.280Z,692.00
2018-01-22T08:35:04.278Z,680.00
2018-01-22T08:36:57.190Z,672.00
2018-01-22T08:37:57.187Z,680.00
2018-01-22T08:39:50.080Z,748.00
2018-01-22T08:40:50.095Z,768.00
2018-01-22T08:42:43.009Z,800.00
2018-01-22T08:43:43.006Z,792.00
2018-01-22T08:45:35.904Z,764.00
2018-01-22T08:46:35.917Z,716.00
2018-01-22T08:48:28.829Z,648.00
2018-01-22T08:49:28.824Z,644.00
2018-01-22T08:51:21.722Z,628.00
2018-01-22T08:52:21.736Z,692.00
2018-01-22T08:54:14.699Z,892.00
2018-01-22T08:55:14.693Z,936.00
2018-01-22T08:57:08.103Z,1120.00
2018-01-22T08:58:08.101Z,1112.00
2018-01-22T09:00:00.996Z,1180.00
2018-01-22T09:01:01.011Z,1172.00
2018-01-22T09:02:53.926Z,1136.00
2018-01-22T09:03:53.930Z,1104.00
2018-01-22T09:05:46.822Z,1000.00
2018-01-22T09:06:46.837Z,1008.00
2018-01-22T09:08:40.249Z,1108.00
2018-01-22T09:09:40.245Z,1068.00
2018-01-22T09:11:33.144Z,1076.00
2018-01-22T09:12:33.157Z,1184.00
2018-01-22T09:14:26.568Z,1180.00
2018-01-22T09:15:26.565Z,1220.00
2018-01-22T09:17:19.986Z,1032.00
2018-01-22T09:18:19.981Z,1084.00
2018-01-22T09:20:12.882Z,1160.00
2018-01-22T09:21:12.899Z,1164.00
2018-01-22T09:23:05.818Z,1128.00
2018-01-22T09:24:05.822Z,1196.00
2018-01-22T09:25:58.719Z,984.00
2018-01-22T09:26:58.728Z,944.00
2018-01-22T09:28:51.662Z,1096.00
2018-01-22T09:29:51.656Z,1028.00
2018-01-22T09:31:44.552Z,868.00
2018-01-22T09:32:44.567Z,880.00
2018-01-22T09:34:37.489Z,864.00
2018-01-22T09:35:37.483Z,824.00
2018-01-22T09:37:30.895Z,1000.00
2018-01-22T09:38:30.892Z,956.00
2018-01-22T09:40:23.789Z,800.00
2018-01-22T09:41:23.806Z,860.00
2018-01-22T09:43:16.726Z,840.00
2018-01-22T09:44:16.724Z,844.00
2018-01-22T09:46:09.620Z,940.00
2018-01-22T09:47:09.641Z,1080.00
2018-01-22T09:49:02.573Z,796.00
2018-01-22T09:50:02.556Z,772.00
2018-01-22T09:51:55.454Z,756.00
2018-01-22T09:52:55.471Z,700.00
2018-01-22T09:54:48.390Z,760.00
2018-01-22T09:55:48.385Z,872.00
2018-01-22T09:57:41.411Z,968.00
2018-01-22T09:58:41.409Z,824.00
2018-01-22T10:00:34.347Z,880.00
2018-01-22T10:01:34.361Z,860.00
2018-01-22T10:03:27.318Z,992.00
2018-01-22T10:04:27.315Z,952.00
2018-01-22T10:06:20.256Z,972.00
2018-01-22T10:07:20.272Z,948.00
2018-01-22T10:09:13.739Z,860.00
2018-01-22T10:10:13.736Z,904.00
2018-01-22T10:12:07.191Z,1172.00
2018-01-22T10:13:07.205Z,1320.00
2018-01-22T10:15:01.698Z,1728.00
2018-01-22T10:16:01.692Z,2068.00
2018-01-22T10:17:54.650Z,2304.00
2018-01-22T10:18:54.648Z,1960.00
2018-01-22T10:20:47.590Z,1680.00
2018-01-22T10:21:47.602Z,1244.00
2018-01-22T10:23:41.073Z,1184.00
2018-01-22T10:24:41.069Z,1272.00
2018-01-22T10:26:34.009Z,1332.00
2018-01-22T10:27:34.024Z,1352.00
2018-01-22T10:29:27.012Z,1300.00
2018-01-22T10:30:26.977Z,1232.00
2018-01-22T10:32:19.917Z,1188.00
2018-01-22T10:33:19.934Z,1436.00
2018-01-22T10:35:12.888Z,1992.00
2018-01-22T10:36:12.886Z,1856.00
2018-01-22T10:38:05.845Z,2380.00
2018-01-22T10:39:05.842Z,2764.00
2018-01-22T10:40:59.289Z,2720.00
2018-01-22T10:41:59.307Z,2284.00
2018-01-22T10:43:52.267Z,2116.00
2018-01-22T10:44:52.264Z,1796.00
2018-01-22T10:46:45.196Z,1412.00
2018-01-22T10:47:45.212Z,1460.00
2018-01-22T10:49:38.170Z,1372.00
2018-01-22T10:50:38.169Z,1404.00
2018-01-22T10:52:31.106Z,1636.00
2018-01-22T10:53:31.123Z,1712.00
2018-01-22T10:55:24.629Z,1680.00
2018-01-22T10:56:24.588Z,1500.00
2018-01-22T10:58:17.542Z,1520.00
2018-01-22T10:59:17.542Z,1648.00
2018-01-22T11:01:10.478Z,1664.00
2018-01-22T11:02:10.497Z,1612.00
2018-01-22T11:04:03.453Z,1744.00
2018-01-22T11:05:03.478Z,1524.00
2018-01-22T11:06:56.388Z,1660.00
2018-01-22T11:07:56.404Z,1544.00
2018-01-22T11:09:49.363Z,1624.00
2018-01-22T11:10:49.358Z,1560.00
2018-01-22T11:12:42.809Z,1788.00
2018-01-22T11:13:42.825Z,1640.00
2018-01-22T11:15:35.744Z,1816.00
2018-01-22T11:16:35.745Z,1576.00
2018-01-22T11:18:28.685Z,1436.00
2018-01-22T11:19:28.663Z,1528.00
2018-01-22T11:21:22.061Z,1828.00
2018-01-22T11:22:22.077Z,2128.00
2018-01-22T11:24:14.999Z,1824.00
2018-01-22T11:25:14.992Z,1888.00
2018-01-22T11:27:07.896Z,1704.00
2018-01-22T11:28:07.910Z,1692.00
2018-01-22T11:30:00.829Z,1688.00
2018-01-22T11:31:00.827Z,1820.00
2018-01-22T11:32:53.726Z,1704.00
2018-01-22T11:33:53.742Z,1656.00
2018-01-22T11:35:46.670Z,1632.00
2018-01-22T11:36:46.661Z,1840.00
2018-01-22T11:38:39.579Z,2164.00
2018-01-22T11:39:39.577Z,2052.00
2018-01-22T11:41:32.477Z,1668.00
2018-01-22T11:42:32.493Z,1688.00
2018-01-22T11:44:25.413Z,2080.00
2018-01-22T11:45:25.415Z,2004.00
2018-01-22T11:47:18.309Z,1772.00
2018-01-22T11:48:18.328Z,1720.00
2018-01-22T11:50:11.248Z,1848.00
2018-01-22T11:51:11.242Z,1800.00
2018-01-22T11:53:04.144Z,1664.00
2018-01-22T11:54:04.159Z,1736.00
2018-01-22T11:55:57.082Z,1936.00
2018-01-22T11:56:57.076Z,2056.00
2018-01-22T11:58:49.997Z,1856.00
2018-01-22T11:59:49.995Z,1852.00
2018-01-22T12:01:42.906Z,1932.00
2018-01-22T12:02:42.929Z,1668.00
2018-01-22T12:04:35.844Z,1940.00
2018-01-22T12:05:35.891Z,1668.00
2018-01-22T12:07:28.742Z,1548.00
2018-01-22T12:08:28.760Z,1852.00
2018-01-22T12:10:22.174Z,1696.00
2018-01-22T12:11:22.168Z,1960.00
2018-01-22T12:13:15.563Z,2372.00
2018-01-22T12:14:15.583Z,3008.00
2018-01-22T12:16:11.435Z,2576.00
2018-01-22T12:17:08.493Z,2280.00
2018-01-22T12:19:01.411Z,1796.00
2018-01-22T12:20:01.413Z,1708.00
2018-01-22T12:21:54.312Z,1808.00
2018-01-22T12:22:54.331Z,1720.00
2018-01-22T12:24:47.254Z,1732.00
2018-01-22T12:25:47.252Z,1588.00
2018-01-22T12:27:40.152Z,1828.00
2018-01-22T12:28:40.169Z,2552.00
2018-01-22T12:30:33.090Z,2660.00
2018-01-22T12:31:33.088Z,2052.00
2018-01-22T12:33:25.985Z,1936.00
2018-01-22T12:34:26.003Z,1936.00
2018-01-22T12:36:18.919Z,1552.00
2018-01-22T12:37:18.916Z,1348.00
2018-01-22T12:39:11.835Z,1516.00
2018-01-22T12:40:11.836Z,1532.00
2018-01-22T12:42:04.736Z,1728.00
2018-01-22T12:43:04.753Z,1728.00
2018-01-22T12:44:57.679Z,1848.00
2018-01-22T12:45:57.674Z,1732.00
2018-01-22T12:47:50.580Z,2220.00
2018-01-22T12:48:50.598Z,2416.00
2018-01-22T12:50:43.516Z,2624.00
2018-01-22T12:51:43.517Z,2600.00
2018-01-22T12:53:36.416Z,1880.00
2018-01-22T12:54:36.431Z,1844.00
2018-01-22T12:56:29.354Z,1892.00
2018-01-22T12:57:29.352Z,1588.00
2018-01-22T12:59:22.272Z,1172.00
2018-01-22T13:00:22.269Z,1280.00
2018-01-22T13:02:15.170Z,1924.00
2018-01-22T13:03:15.188Z,2184.00
2018-01-22T13:05:08.104Z,1456.00
2018-01-22T13:06:08.103Z,2132.00
2018-01-22T13:08:01.008Z,2376.00
2018-01-22T13:09:01.024Z,2608.00
2018-01-22T13:10:53.944Z,1920.00
2018-01-22T13:11:53.942Z,2080.00
2018-01-22T13:13:46.842Z,1572.00
2018-01-22T13:14:46.857Z,1808.00
2018-01-22T13:16:39.776Z,2252.00
2018-01-22T13:17:39.783Z,2804.00
2018-01-22T13:19:32.696Z,2464.00
2018-01-22T13:20:32.696Z,2076.00
2018-01-22T13:22:25.596Z,1596.00
2018-01-22T13:23:25.614Z,1376.00
2018-01-22T13:25:18.530Z,1100.00
2018-01-22T13:26:18.529Z,1140.00
2018-01-22T13:28:11.431Z,1388.00
2018-01-22T13:29:11.446Z,1512.00
2018-01-22T13:31:04.365Z,1320.00
2018-01-22T13:32:04.368Z,1532.00
2018-01-22T13:33:57.263Z,2028.00
2018-01-22T13:34:57.282Z,2128.00
2018-01-22T13:36:50.204Z,1428.00
2018-01-22T13:37:50.206Z,1688.00
2018-01-22T13:39:43.615Z,3008.00
2018-01-22T13:40:43.619Z,2436.00
2018-01-22T13:42:36.517Z,1960.00
2018-01-22T13:43:36.535Z,1996.00
2018-01-22T13:45:29.459Z,2564.00
2018-01-22T13:46:29.463Z,3084.00
2018-01-22T13:48:22.359Z,2756.00
2018-01-22T13:49:22.380Z,2580.00
2018-01-22T13:51:15.299Z,2368.00
2018-01-22T13:52:15.294Z,2296.00
2018-01-22T13:54:08.199Z,2828.00
2018-01-22T13:55:08.228Z,3016.00
2018-01-22T13:57:01.139Z,2512.00
2018-01-22T13:58:01.135Z,2272.00
2018-01-22T13:59:54.061Z,2240.00
2018-01-22T14:00:54.055Z,1872.00
2018-01-22T14:02:47.452Z,1520.00
2018-01-22T14:03:47.468Z,1888.00
2018-01-22T14:05:40.392Z,1704.00
2018-01-22T14:06:40.391Z,1896.00
2018-01-22T14:08:33.294Z,1700.00
2018-01-22T14:09:33.311Z,1504.00
2018-01-22T14:11:26.231Z,2132.00
2018-01-22T14:12:26.230Z,2392.00
2018-01-22T14:14:19.135Z,2460.00
2018-01-22T14:15:19.154Z,2636.00
2018-01-22T14:17:12.593Z,2628.00
2018-01-22T14:18:12.595Z,2592.00
2018-01-22T14:20:05.566Z,2512.00
2018-01-22T14:21:05.565Z,2260.00
2018-01-22T14:22:58.501Z,2396.00
2018-01-22T14:23:58.519Z,2432.00
2018-01-22T14:25:51.473Z,2304.00
2018-01-22T14:26:51.473Z,2116.00
2018-01-22T14:28:44.435Z,1736.00
2018-01-22T14:29:44.428Z,1960.00
2018-01-22T14:31:37.384Z,2284.00
2018-01-22T14:32:37.418Z,2184.00
2018-01-22T14:34:30.318Z,1924.00
2018-01-22T14:35:30.337Z,1652.00
2018-01-22T14:37:23.257Z,1556.00
2018-01-22T14:38:23.263Z,1292.00
2018-01-22T14:40:16.246Z,1248.00
2018-01-22T14:41:16.245Z,1112.00
2018-01-22T14:43:09.150Z,1104.00
2018-01-22T14:44:09.166Z,1260.00
2018-01-22T14:46:02.162Z,1424.00
2018-01-22T14:47:02.152Z,1224.00
2018-01-22T14:48:55.096Z,812.00
2018-01-22T14:49:55.108Z,744.00
2018-01-22T14:51:48.064Z,536.00
2018-01-22T14:52:48.067Z,512.00
2018-01-22T14:54:41.006Z,504.00
2018-01-22T14:55:41.015Z,512.00
2018-01-22T14:57:33.981Z,468.00
2018-01-22T14:58:33.940Z,512.00
2018-01-22T15:00:26.874Z,672.00
2018-01-22T15:01:26.874Z,668.00
2018-01-22T15:03:20.287Z,656.00
2018-01-22T15:04:20.302Z,744.00
2018-01-22T15:06:13.382Z,840.00
2018-01-22T15:07:13.370Z,808.00
2018-01-22T15:09:06.278Z,788.00
2018-01-22T15:10:06.298Z,932.00
2018-01-22T15:11:59.253Z,968.00
2018-01-22T15:12:59.253Z,960.00
2018-01-22T15:14:52.205Z,984.00
2018-01-22T15:15:52.207Z,968.00
2018-01-22T15:17:45.131Z,924.00
2018-01-22T15:18:45.133Z,852.00
2018-01-22T15:20:38.120Z,680.00
2018-01-22T15:21:38.115Z,632.00
2018-01-22T15:23:31.745Z,620.00
2018-01-22T15:24:31.586Z,664.00
2018-01-22T15:26:25.049Z,644.00
2018-01-22T15:27:25.054Z,640.00
2018-01-22T15:29:17.994Z,612.00
2018-01-22T15:30:18.003Z,564.00
2018-01-22T15:32:10.971Z,488.00
2018-01-22T15:33:10.961Z,500.00
2018-01-22T15:35:04.408Z,452.00
2018-01-22T15:36:04.426Z,376.00
2018-01-22T15:37:57.375Z,364.00
2018-01-22T15:38:57.376Z,340.00
2018-01-22T15:40:50.331Z,252.00
2018-01-22T15:41:50.334Z,240.00
2018-01-22T15:43:43.255Z,196.00
2018-01-22T15:44:43.266Z,156.00
2018-01-22T15:46:42.306Z,156.00
2018-01-22T15:47:42.282Z,108.00
2018-01-22T15:49:35.272Z,96.00
2018-01-22T15:50:35.238Z,92.00
2018-01-22T15:52:28.162Z,104.00
2018-01-22T15:53:28.158Z,120.00
2018-01-22T15:55:22.056Z,100.00
2018-01-22T15:56:22.075Z,72.00
2018-01-22T15:58:14.999Z,64.00
2018-01-22T15:59:14.998Z,68.00
2018-01-22T16:01:07.947Z,80.00
2018-01-22T16:02:07.924Z,76.00
2018-01-22T16:04:00.818Z,64.00
2018-01-22T16:05:00.834Z,60.00
2018-01-22T16:06:53.756Z,48.00
2018-01-22T16:07:53.756Z,40.00
2018-01-22T16:09:46.660Z,28.00
2018-01-22T16:10:46.679Z,20.00
2018-01-22T16:12:39.641Z,16.00
2018-01-22T16:13:39.595Z,12.00
2018-01-22T16:15:32.496Z,8.00
2018-01-22T16:16:32.514Z,4.00
2018-01-22T16:18:25.432Z,4.00
2018-01-22T16:19:25.431Z,4.00
2018-01-22T16:21:18.497Z,4.00
2018-01-22T16:22:18.486Z,0.00
2018-01-22T16:24:11.384Z,0.00
2018-01-22T16:25:11.401Z,0.00
2018-01-22T16:27:04.356Z,4.00
2018-01-22T16:28:04.356Z,0.00
2018-01-22T16:29:57.293Z,0.00
2018-01-22T16:30:57.308Z,0.00
2018-01-22T16:32:50.264Z,0.00
2018-01-22T16:33:50.261Z,0.00
2018-01-22T16:35:43.216Z,0.00
2018-01-22T16:36:43.215Z,0.00
2018-01-22T16:38:36.176Z,0.00
2018-01-22T16:39:36.174Z,0.00
2018-01-22T16:41:29.126Z,0.00
2018-01-22T16:42:29.125Z,0.00
2018-01-22T16:44:22.063Z,0.00
2018-01-22T16:45:22.082Z,0.00
2018-01-22T16:47:15.006Z,0.00
2018-01-22T16:48:15.004Z,0.00
2018-01-22T16:50:07.975Z,0.00
2018-01-22T16:51:07.987Z,0.00
2018-01-22T16:53:00.948Z,0.00
2018-01-22T16:54:00.942Z,0.00
2018-01-22T16:55:53.886Z,0.00
2018-01-22T16:56:53.896Z,0.00
2018-01-22T16:58:46.854Z,0.00
2018-01-22T16:59:46.850Z,0.00
2018-01-22T17:01:39.807Z,0.00
2018-01-22T17:02:39.806Z,0.00
2018-01-22T17:04:32.741Z,0.00
2018-01-22T17:05:32.758Z,0.00
2018-01-22T17:07:25.714Z,0.00
2018-01-22T17:08:25.769Z,0.00
2018-01-22T17:10:19.167Z,0.00
2018-01-22T17:11:19.179Z,0.00
2018-01-22T17:13:12.142Z,0.00
2018-01-22T17:14:12.135Z,0.00
2018-01-22T17:16:05.070Z,0.00
2018-01-22T17:17:05.093Z,0.00
2018-01-22T17:18:58.051Z,0.00
2018-01-22T17:19:58.049Z,0.00
2018-01-22T17:21:51.000Z,0.00
2018-01-22T17:22:51.000Z,0.00
2018-01-22T17:24:43.935Z,0.00
2018-01-22T17:25:43.950Z,0.00
2018-01-22T17:27:36.906Z,0.00
2018-01-22T17:28:36.938Z,0.00
2018-01-22T17:30:29.841Z,0.00
2018-01-22T17:31:29.869Z,0.00
2018-01-22T17:33:23.021Z,0.00
2018-01-22T17:34:23.027Z,0.00
2018-01-22T17:36:15.953Z,0.00
2018-01-22T17:37:15.972Z,0.00
2018-01-22T17:39:08.930Z,0.00
2018-01-22T17:40:08.927Z,0.00
2018-01-22T17:42:01.881Z,0.00
2018-01-22T17:43:01.914Z,0.00
2018-01-22T17:44:54.817Z,0.00
2018-01-22T17:45:54.837Z,0.00
2018-01-22T17:47:47.790Z,0.00
2018-01-22T17:48:47.788Z,0.00
2018-01-22T17:50:40.725Z,0.00
2018-01-22T17:51:40.755Z,0.00
2018-01-22T17:53:33.813Z,0.00
2018-01-22T17:54:33.768Z,0.00
2018-01-22T17:56:26.742Z,0.00
2018-01-22T17:57:26.761Z,0.00
2018-01-22T17:59:19.709Z,0.00
2018-01-22T18:00:19.713Z,0.00
2018-01-22T18:02:12.662Z,0.00
2018-01-22T18:03:12.672Z,0.00
2018-01-22T18:05:05.598Z,0.00
2018-01-22T18:06:05.616Z,0.00
2018-01-22T18:08:00.108Z,0.00
2018-01-22T18:09:00.107Z,0.00
2018-01-22T18:10:53.043Z,0.00
2018-01-22T18:11:53.059Z,0.00
2018-01-22T18:13:46.014Z,0.00
2018-01-22T18:14:46.015Z,0.00
2018-01-22T18:16:38.988Z,0.00
2018-01-22T18:17:38.967Z,0.00
2018-01-22T18:19:32.437Z,0.00
2018-01-22T18:20:32.431Z,0.00
2018-01-22T18:22:25.394Z,0.00
2018-01-22T18:23:25.416Z,0.00
2018-01-22T18:25:18.327Z,0.00